sensor_id;sensor_type;location;lat;lon;timestamp;temperature;humidity
26408;DHT22;14583;43.604;1.364;2023-06-22T00:00:54;22.50;99.90
26408;DHT22;14583;43.604;1.364;2023-06-22T00:03:22;22.50;99.90
26408;DHT22;14583;43.604;1.364;2023-06-22T00:05:48;22.50;99.90
26408;DHT22;14583;43.604;1.364;2023-06-22T00:08:15;22.40;99.90
26408;DHT22;14583;43.604;1.364;2023-06-22T00:10:41;22.40;99.90
26408;DHT22;14583;43.604;1.364;2023-06-22T00:13:08;22.40;99.90
26408;DHT22;14583;43.604;1.364;2023-06-22T00:33:08;22.50;99.90
26408;DHT22;14583;43.604;1.364;2023-06-22T00:35:34;22.50;99.90
26408;DHT22;14583;43.604;1.364;2023-06-22T00:38:00;22.40;99.90
26408;DHT22;14583;43.604;1.364;2023-06-22T00:40:29;22.40;99.90
26408;DHT22;14583;43.604;1.364;2023-06-22T00:42:56;22.40;99.90
26408;DHT22;14583;43.604;1.364;2023-06-22T00:45:25;22.30;99.90
26408;DHT22;14583;43.604;1.364;2023-06-22T00:47:53;22.40;99.90
26408;DHT22;14583;43.604;1.364;2023-06-22T00:50:30;22.30;99.90
26408;DHT22;14583;43.604;1.364;2023-06-22T00:53:00;22.40;99.90
26408;DHT22;14583;43.604;1.364;2023-06-22T00:55:26;22.40;99.90
26408;DHT22;14583;43.604;1.364;2023-06-22T00:57:53;22.40;99.90
26408;DHT22;14583;43.604;1.364;2023-06-22T01:00:23;22.40;99.90
26408;DHT22;14583;43.604;1.364;2023-06-22T01:02:51;22.30;99.90
26408;DHT22;14583;43.604;1.364;2023-06-22T01:05:21;22.30;99.90
26408;DHT22;14583;43.604;1.364;2023-06-22T01:08:17;22.30;99.90
26408;DHT22;14583;43.604;1.364;2023-06-22T01:18:41;22.20;99.90
26408;DHT22;14583;43.604;1.364;2023-06-22T01:21:12;22.00;99.90
26408;DHT22;14583;43.604;1.364;2023-06-22T01:28:59;21.70;99.90
26408;DHT22;14583;43.604;1.364;2023-06-22T01:31:27;21.70;99.90
26408;DHT22;14583;43.604;1.364;2023-06-22T01:33:57;21.70;99.90
26408;DHT22;14583;43.604;1.364;2023-06-22T01:36:24;21.80;99.90
26408;DHT22;14583;43.604;1.364;2023-06-22T01:38:52;21.80;99.90
26408;DHT22;14583;43.604;1.364;2023-06-22T01:41:18;21.90;99.90
26408;DHT22;14583;43.604;1.364;2023-06-22T01:43:45;21.80;99.90
26408;DHT22;14583;43.604;1.364;2023-06-22T01:46:11;21.80;99.90
26408;DHT22;14583;43.604;1.364;2023-06-22T01:48:38;21.80;99.90
26408;DHT22;14583;43.604;1.364;2023-06-22T01:51:04;21.70;99.90
26408;DHT22;14583;43.604;1.364;2023-06-22T01:53:30;21.80;99.90
26408;DHT22;14583;43.604;1.364;2023-06-22T01:55:56;21.70;99.90
26408;DHT22;14583;43.604;1.364;2023-06-22T01:58:26;21.80;99.90
26408;DHT22;14583;43.604;1.364;2023-06-22T02:01:12;21.70;99.90
26408;DHT22;14583;43.604;1.364;2023-06-22T02:03:51;21.60;99.90
26408;DHT22;14583;43.604;1.364;2023-06-22T02:06:24;21.50;99.90
26408;DHT22;14583;43.604;1.364;2023-06-22T02:08:59;21.50;99.90
26408;DHT22;14583;43.604;1.364;2023-06-22T02:11:28;21.50;99.90
26408;DHT22;14583;43.604;1.364;2023-06-22T02:13:55;21.30;99.90
26408;DHT22;14583;43.604;1.364;2023-06-22T02:16:22;21.40;99.90
26408;DHT22;14583;43.604;1.364;2023-06-22T02:18:48;21.40;99.90
26408;DHT22;14583;43.604;1.364;2023-06-22T02:21:18;21.50;99.90
26408;DHT22;14583;43.604;1.364;2023-06-22T02:23:44;21.50;99.90
26408;DHT22;14583;43.604;1.364;2023-06-22T02:26:10;21.30;99.90
26408;DHT22;14583;43.604;1.364;2023-06-22T02:28:36;21.40;99.90
26408;DHT22;14583;43.604;1.364;2023-06-22T02:31:01;21.50;99.90
26408;DHT22;14583;43.604;1.364;2023-06-22T02:33:27;21.40;99.90
26408;DHT22;14583;43.604;1.364;2023-06-22T02:35:53;21.40;99.90
26408;DHT22;14583;43.604;1.364;2023-06-22T02:38:19;21.50;99.90
26408;DHT22;14583;43.604;1.364;2023-06-22T02:40:45;21.50;99.90
26408;DHT22;14583;43.604;1.364;2023-06-22T02:43:11;21.50;99.90
26408;DHT22;14583;43.604;1.364;2023-06-22T02:45:37;21.50;99.90
26408;DHT22;14583;43.604;1.364;2023-06-22T02:48:03;21.40;99.90
26408;DHT22;14583;43.604;1.364;2023-06-22T02:50:29;21.30;99.90
26408;DHT22;14583;43.604;1.364;2023-06-22T02:52:54;21.40;99.90
26408;DHT22;14583;43.604;1.364;2023-06-22T02:55:20;21.40;99.90
26408;DHT22;14583;43.604;1.364;2023-06-22T02:57:46;21.50;99.90
26408;DHT22;14583;43.604;1.364;2023-06-22T03:00:13;21.50;99.90
26408;DHT22;14583;43.604;1.364;2023-06-22T03:02:47;21.40;99.90
26408;DHT22;14583;43.604;1.364;2023-06-22T03:05:14;21.40;99.90
26408;DHT22;14583;43.604;1.364;2023-06-22T03:07:41;21.40;99.90
26408;DHT22;14583;43.604;1.364;2023-06-22T03:10:08;21.40;99.90
26408;DHT22;14583;43.604;1.364;2023-06-22T03:12:34;21.30;99.90
26408;DHT22;14583;43.604;1.364;2023-06-22T03:15:00;21.30;99.90
26408;DHT22;14583;43.604;1.364;2023-06-22T03:17:26;21.40;99.90
26408;DHT22;14583;43.604;1.364;2023-06-22T03:19:51;21.30;99.90
26408;DHT22;14583;43.604;1.364;2023-06-22T03:22:17;21.50;99.90
26408;DHT22;14583;43.604;1.364;2023-06-22T03:24:43;21.50;99.90
26408;DHT22;14583;43.604;1.364;2023-06-22T03:27:08;21.50;99.90
26408;DHT22;14583;43.604;1.364;2023-06-22T03:29:34;21.40;99.90
26408;DHT22;14583;43.604;1.364;2023-06-22T03:32:00;21.50;99.90
26408;DHT22;14583;43.604;1.364;2023-06-22T03:34:25;21.40;99.90
26408;DHT22;14583;43.604;1.364;2023-06-22T03:36:51;21.30;99.90
26408;DHT22;14583;43.604;1.364;2023-06-22T03:39:17;21.40;99.90
26408;DHT22;14583;43.604;1.364;2023-06-22T03:41:42;21.40;99.90
26408;DHT22;14583;43.604;1.364;2023-06-22T03:44:08;21.40;99.90
26408;DHT22;14583;43.604;1.364;2023-06-22T03:46:37;21.30;99.90
26408;DHT22;14583;43.604;1.364;2023-06-22T03:49:03;21.30;99.90
26408;DHT22;14583;43.604;1.364;2023-06-22T03:51:30;21.40;99.90
26408;DHT22;14583;43.604;1.364;2023-06-22T03:53:56;21.40;99.90
26408;DHT22;14583;43.604;1.364;2023-06-22T03:56:22;21.20;99.90
26408;DHT22;14583;43.604;1.364;2023-06-22T03:58:47;21.40;99.90
26408;DHT22;14583;43.604;1.364;2023-06-22T04:01:13;21.40;99.90
26408;DHT22;14583;43.604;1.364;2023-06-22T04:03:39;21.50;99.90
26408;DHT22;14583;43.604;1.364;2023-06-22T04:06:04;21.50;99.90
26408;DHT22;14583;43.604;1.364;2023-06-22T04:08:30;21.50;99.90
26408;DHT22;14583;43.604;1.364;2023-06-22T04:10:56;21.40;99.90
26408;DHT22;14583;43.604;1.364;2023-06-22T04:13:22;21.40;99.90
26408;DHT22;14583;43.604;1.364;2023-06-22T04:15:47;21.50;99.90
26408;DHT22;14583;43.604;1.364;2023-06-22T04:18:13;21.50;99.90
26408;DHT22;14583;43.604;1.364;2023-06-22T04:20:39;21.20;99.90
26408;DHT22;14583;43.604;1.364;2023-06-22T04:23:05;21.30;99.90
26408;DHT22;14583;43.604;1.364;2023-06-22T04:25:30;21.40;99.90
26408;DHT22;14583;43.604;1.364;2023-06-22T04:27:56;21.50;99.90
26408;DHT22;14583;43.604;1.364;2023-06-22T04:30:22;21.50;99.90
26408;DHT22;14583;43.604;1.364;2023-06-22T04:32:48;21.30;99.90
26408;DHT22;14583;43.604;1.364;2023-06-22T04:35:23;21.30;99.90
26408;DHT22;14583;43.604;1.364;2023-06-22T04:37:49;21.40;99.90
26408;DHT22;14583;43.604;1.364;2023-06-22T04:40:15;21.40;99.90
26408;DHT22;14583;43.604;1.364;2023-06-22T04:42:41;21.30;99.90
26408;DHT22;14583;43.604;1.364;2023-06-22T04:45:17;21.40;99.90
26408;DHT22;14583;43.604;1.364;2023-06-22T04:47:43;21.50;99.90
26408;DHT22;14583;43.604;1.364;2023-06-22T04:50:11;21.30;99.90
26408;DHT22;14583;43.604;1.364;2023-06-22T04:52:37;21.20;99.90
26408;DHT22;14583;43.604;1.364;2023-06-22T04:55:03;21.10;99.90
26408;DHT22;14583;43.604;1.364;2023-06-22T04:57:29;21.10;99.90
26408;DHT22;14583;43.604;1.364;2023-06-22T05:00:01;21.10;99.90
26408;DHT22;14583;43.604;1.364;2023-06-22T05:02:52;21.10;99.90
26408;DHT22;14583;43.604;1.364;2023-06-22T05:05:18;21.30;99.90
26408;DHT22;14583;43.604;1.364;2023-06-22T05:07:46;21.30;99.90
26408;DHT22;14583;43.604;1.364;2023-06-22T05:10:14;21.40;99.90
26408;DHT22;14583;43.604;1.364;2023-06-22T05:12:40;21.50;99.90
26408;DHT22;14583;43.604;1.364;2023-06-22T05:15:09;21.40;99.90
26408;DHT22;14583;43.604;1.364;2023-06-22T05:17:36;21.30;99.90
26408;DHT22;14583;43.604;1.364;2023-06-22T05:20:02;21.40;99.90
26408;DHT22;14583;43.604;1.364;2023-06-22T05:22:31;21.40;99.90
26408;DHT22;14583;43.604;1.364;2023-06-22T05:24:57;21.40;99.90
26408;DHT22;14583;43.604;1.364;2023-06-22T05:27:23;21.30;99.90
26408;DHT22;14583;43.604;1.364;2023-06-22T05:29:49;21.30;99.90
26408;DHT22;14583;43.604;1.364;2023-06-22T05:32:14;21.30;99.90
26408;DHT22;14583;43.604;1.364;2023-06-22T05:34:40;21.20;99.90
26408;DHT22;14583;43.604;1.364;2023-06-22T05:37:06;21.20;99.90
26408;DHT22;14583;43.604;1.364;2023-06-22T05:39:31;21.20;99.90
26408;DHT22;14583;43.604;1.364;2023-06-22T05:41:57;21.30;99.90
26408;DHT22;14583;43.604;1.364;2023-06-22T05:44:25;21.30;99.90
26408;DHT22;14583;43.604;1.364;2023-06-22T05:46:51;21.40;99.90
26408;DHT22;14583;43.604;1.364;2023-06-22T05:49:17;21.30;99.90
26408;DHT22;14583;43.604;1.364;2023-06-22T05:51:43;21.50;99.90
26408;DHT22;14583;43.604;1.364;2023-06-22T05:54:08;21.30;99.90
26408;DHT22;14583;43.604;1.364;2023-06-22T05:56:34;21.40;99.90
26408;DHT22;14583;43.604;1.364;2023-06-22T05:59:00;21.30;99.90
26408;DHT22;14583;43.604;1.364;2023-06-22T06:01:25;21.40;99.90
26408;DHT22;14583;43.604;1.364;2023-06-22T06:03:52;21.40;99.90
26408;DHT22;14583;43.604;1.364;2023-06-22T06:06:18;21.40;99.90
26408;DHT22;14583;43.604;1.364;2023-06-22T06:08:54;21.50;99.90
26408;DHT22;14583;43.604;1.364;2023-06-22T06:11:20;21.60;99.90
26408;DHT22;14583;43.604;1.364;2023-06-22T06:13:46;21.70;99.90
26408;DHT22;14583;43.604;1.364;2023-06-22T06:16:12;21.70;99.90
26408;DHT22;14583;43.604;1.364;2023-06-22T06:18:38;21.80;99.90
26408;DHT22;14583;43.604;1.364;2023-06-22T06:21:04;21.80;99.90
26408;DHT22;14583;43.604;1.364;2023-06-22T06:23:29;21.90;99.90
26408;DHT22;14583;43.604;1.364;2023-06-22T06:25:55;21.90;99.90
26408;DHT22;14583;43.604;1.364;2023-06-22T06:28:22;22.00;99.90
26408;DHT22;14583;43.604;1.364;2023-06-22T06:30:47;22.00;99.90
26408;DHT22;14583;43.604;1.364;2023-06-22T06:33:13;22.00;99.90
26408;DHT22;14583;43.604;1.364;2023-06-22T06:35:39;22.00;99.90
26408;DHT22;14583;43.604;1.364;2023-06-22T06:38:05;22.00;99.90
26408;DHT22;14583;43.604;1.364;2023-06-22T06:40:30;22.00;99.90
26408;DHT22;14583;43.604;1.364;2023-06-22T06:42:56;22.10;99.90
26408;DHT22;14583;43.604;1.364;2023-06-22T06:45:23;22.10;99.90
26408;DHT22;14583;43.604;1.364;2023-06-22T06:47:51;22.10;99.90
26408;DHT22;14583;43.604;1.364;2023-06-22T06:50:17;22.10;99.90
26408;DHT22;14583;43.604;1.364;2023-06-22T06:52:43;22.10;99.90
26408;DHT22;14583;43.604;1.364;2023-06-22T06:55:09;22.10;99.90
26408;DHT22;14583;43.604;1.364;2023-06-22T06:57:38;22.10;99.90
26408;DHT22;14583;43.604;1.364;2023-06-22T07:00:08;22.20;99.90
26408;DHT22;14583;43.604;1.364;2023-06-22T07:02:39;22.10;99.90
26408;DHT22;14583;43.604;1.364;2023-06-22T07:05:05;22.30;99.90
26408;DHT22;14583;43.604;1.364;2023-06-22T07:07:32;22.30;99.90
26408;DHT22;14583;43.604;1.364;2023-06-22T07:09:57;22.40;99.90
26408;DHT22;14583;43.604;1.364;2023-06-22T07:12:23;22.50;99.90
26408;DHT22;14583;43.604;1.364;2023-06-22T07:14:49;22.50;99.90
26408;DHT22;14583;43.604;1.364;2023-06-22T07:17:15;22.50;99.90
26408;DHT22;14583;43.604;1.364;2023-06-22T07:19:41;22.50;99.90
26408;DHT22;14583;43.604;1.364;2023-06-22T07:22:07;22.40;99.90
26408;DHT22;14583;43.604;1.364;2023-06-22T07:24:33;22.40;99.90
26408;DHT22;14583;43.604;1.364;2023-06-22T07:26:59;22.40;99.90
26408;DHT22;14583;43.604;1.364;2023-06-22T07:29:25;22.20;99.90
26408;DHT22;14583;43.604;1.364;2023-06-22T07:31:52;22.10;99.90
26408;DHT22;14583;43.604;1.364;2023-06-22T07:34:18;22.10;99.90
26408;DHT22;14583;43.604;1.364;2023-06-22T07:36:44;22.20;99.90
26408;DHT22;14583;43.604;1.364;2023-06-22T07:39:11;22.30;99.90
26408;DHT22;14583;43.604;1.364;2023-06-22T07:41:39;22.30;99.90
26408;DHT22;14583;43.604;1.364;2023-06-22T07:44:05;22.30;99.90
26408;DHT22;14583;43.604;1.364;2023-06-22T07:46:32;22.20;99.90
26408;DHT22;14583;43.604;1.364;2023-06-22T07:48:57;22.30;99.90
26408;DHT22;14583;43.604;1.364;2023-06-22T07:51:23;22.40;99.90
26408;DHT22;14583;43.604;1.364;2023-06-22T07:53:49;22.40;99.90
26408;DHT22;14583;43.604;1.364;2023-06-22T07:56:15;22.50;99.90
26408;DHT22;14583;43.604;1.364;2023-06-22T07:58:47;22.50;99.90
26408;DHT22;14583;43.604;1.364;2023-06-22T08:01:17;22.70;99.90
26408;DHT22;14583;43.604;1.364;2023-06-22T08:03:44;22.90;99.90
26408;DHT22;14583;43.604;1.364;2023-06-22T08:06:10;22.80;99.90
26408;DHT22;14583;43.604;1.364;2023-06-22T08:08:36;22.80;99.90
26408;DHT22;14583;43.604;1.364;2023-06-22T08:11:02;22.80;99.90
26408;DHT22;14583;43.604;1.364;2023-06-22T08:13:28;22.70;99.90
26408;DHT22;14583;43.604;1.364;2023-06-22T08:15:54;22.60;99.90
26408;DHT22;14583;43.604;1.364;2023-06-22T08:18:20;22.60;99.90
26408;DHT22;14583;43.604;1.364;2023-06-22T08:20:45;22.50;99.90
26408;DHT22;14583;43.604;1.364;2023-06-22T08:23:11;22.30;99.90
26408;DHT22;14583;43.604;1.364;2023-06-22T08:25:37;22.40;99.90
26408;DHT22;14583;43.604;1.364;2023-06-22T08:28:03;22.40;99.90
26408;DHT22;14583;43.604;1.364;2023-06-22T08:30:30;22.40;99.90
26408;DHT22;14583;43.604;1.364;2023-06-22T08:32:55;22.30;99.90
26408;DHT22;14583;43.604;1.364;2023-06-22T08:35:23;22.20;99.90
26408;DHT22;14583;43.604;1.364;2023-06-22T08:37:49;22.20;99.90
26408;DHT22;14583;43.604;1.364;2023-06-22T08:40:20;21.80;99.90
26408;DHT22;14583;43.604;1.364;2023-06-22T08:42:47;21.80;99.90
26408;DHT22;14583;43.604;1.364;2023-06-22T08:45:13;21.60;99.90
26408;DHT22;14583;43.604;1.364;2023-06-22T08:47:40;21.60;99.90
26408;DHT22;14583;43.604;1.364;2023-06-22T08:50:07;21.60;99.90
26408;DHT22;14583;43.604;1.364;2023-06-22T08:52:34;21.60;99.90
26408;DHT22;14583;43.604;1.364;2023-06-22T08:55:00;21.60;99.90
26408;DHT22;14583;43.604;1.364;2023-06-22T08:57:26;21.40;99.90
26408;DHT22;14583;43.604;1.364;2023-06-22T08:59:52;21.60;99.90
26408;DHT22;14583;43.604;1.364;2023-06-22T09:02:18;21.70;99.90
26408;DHT22;14583;43.604;1.364;2023-06-22T09:04:45;21.60;99.90
26408;DHT22;14583;43.604;1.364;2023-06-22T09:07:11;21.50;99.90
26408;DHT22;14583;43.604;1.364;2023-06-22T09:09:37;21.50;99.90
26408;DHT22;14583;43.604;1.364;2023-06-22T09:12:03;21.50;99.90
26408;DHT22;14583;43.604;1.364;2023-06-22T09:14:28;21.50;99.90
26408;DHT22;14583;43.604;1.364;2023-06-22T09:16:54;21.80;99.90
26408;DHT22;14583;43.604;1.364;2023-06-22T09:19:20;21.80;99.90
26408;DHT22;14583;43.604;1.364;2023-06-22T09:21:45;21.80;99.90
26408;DHT22;14583;43.604;1.364;2023-06-22T09:24:11;21.90;99.90
26408;DHT22;14583;43.604;1.364;2023-06-22T09:26:37;22.00;99.90
26408;DHT22;14583;43.604;1.364;2023-06-22T09:29:05;22.00;99.90
26408;DHT22;14583;43.604;1.364;2023-06-22T09:31:31;22.10;99.90
26408;DHT22;14583;43.604;1.364;2023-06-22T09:33:57;22.10;99.90
26408;DHT22;14583;43.604;1.364;2023-06-22T09:36:22;22.20;99.90
26408;DHT22;14583;43.604;1.364;2023-06-22T09:38:49;22.40;99.90
26408;DHT22;14583;43.604;1.364;2023-06-22T09:41:20;22.50;99.90
26408;DHT22;14583;43.604;1.364;2023-06-22T09:43:46;22.60;99.90
26408;DHT22;14583;43.604;1.364;2023-06-22T09:46:14;22.60;99.90
26408;DHT22;14583;43.604;1.364;2023-06-22T09:48:40;22.60;99.90
26408;DHT22;14583;43.604;1.364;2023-06-22T09:51:06;22.60;99.90
26408;DHT22;14583;43.604;1.364;2023-06-22T09:53:31;22.70;99.90
26408;DHT22;14583;43.604;1.364;2023-06-22T09:55:57;22.90;99.90
26408;DHT22;14583;43.604;1.364;2023-06-22T09:58:23;23.00;99.90
26408;DHT22;14583;43.604;1.364;2023-06-22T10:00:49;23.30;99.90
26408;DHT22;14583;43.604;1.364;2023-06-22T10:03:14;23.20;99.90
26408;DHT22;14583;43.604;1.364;2023-06-22T10:05:40;23.30;99.90
26408;DHT22;14583;43.604;1.364;2023-06-22T10:08:05;23.40;99.90
26408;DHT22;14583;43.604;1.364;2023-06-22T10:10:33;23.40;99.90
26408;DHT22;14583;43.604;1.364;2023-06-22T10:13:07;23.50;99.90
26408;DHT22;14583;43.604;1.364;2023-06-22T10:15:34;23.70;99.90
26408;DHT22;14583;43.604;1.364;2023-06-22T10:18:00;23.70;99.90
26408;DHT22;14583;43.604;1.364;2023-06-22T10:20:25;23.70;99.90
26408;DHT22;14583;43.604;1.364;2023-06-22T10:22:51;23.90;99.90
26408;DHT22;14583;43.604;1.364;2023-06-22T10:25:17;23.70;99.90
26408;DHT22;14583;43.604;1.364;2023-06-22T10:27:43;23.80;99.90
26408;DHT22;14583;43.604;1.364;2023-06-22T10:30:11;24.00;99.90
26408;DHT22;14583;43.604;1.364;2023-06-22T10:32:38;24.00;99.90
26408;DHT22;14583;43.604;1.364;2023-06-22T10:35:05;23.90;99.90
26408;DHT22;14583;43.604;1.364;2023-06-22T10:37:31;23.70;99.90
26408;DHT22;14583;43.604;1.364;2023-06-22T10:39:57;23.70;99.90
26408;DHT22;14583;43.604;1.364;2023-06-22T10:42:23;23.60;99.90
26408;DHT22;14583;43.604;1.364;2023-06-22T10:44:49;23.50;99.90
26408;DHT22;14583;43.604;1.364;2023-06-22T10:47:14;23.60;99.90
26408;DHT22;14583;43.604;1.364;2023-06-22T10:49:41;23.60;99.90
26408;DHT22;14583;43.604;1.364;2023-06-22T10:52:08;23.80;99.90
26408;DHT22;14583;43.604;1.364;2023-06-22T10:54:35;23.80;99.90
26408;DHT22;14583;43.604;1.364;2023-06-22T10:57:01;23.90;99.90
26408;DHT22;14583;43.604;1.364;2023-06-22T10:59:27;24.00;99.90
26408;DHT22;14583;43.604;1.364;2023-06-22T11:01:55;23.90;99.90
26408;DHT22;14583;43.604;1.364;2023-06-22T11:04:20;24.00;99.90
26408;DHT22;14583;43.604;1.364;2023-06-22T11:06:47;24.10;99.90
26408;DHT22;14583;43.604;1.364;2023-06-22T11:09:13;24.20;99.90
26408;DHT22;14583;43.604;1.364;2023-06-22T11:11:44;24.50;99.90
26408;DHT22;14583;43.604;1.364;2023-06-22T11:14:09;24.60;99.90
26408;DHT22;14583;43.604;1.364;2023-06-22T11:16:35;24.70;99.90
26408;DHT22;14583;43.604;1.364;2023-06-22T11:19:01;24.60;99.90
26408;DHT22;14583;43.604;1.364;2023-06-22T11:21:26;24.50;99.90
26408;DHT22;14583;43.604;1.364;2023-06-22T11:23:52;24.60;99.90
26408;DHT22;14583;43.604;1.364;2023-06-22T11:26:18;24.70;99.90
26408;DHT22;14583;43.604;1.364;2023-06-22T11:28:43;24.80;99.90
26408;DHT22;14583;43.604;1.364;2023-06-22T11:31:09;24.90;99.90
26408;DHT22;14583;43.604;1.364;2023-06-22T11:33:35;24.90;99.90
26408;DHT22;14583;43.604;1.364;2023-06-22T11:36:00;24.90;99.90
26408;DHT22;14583;43.604;1.364;2023-06-22T11:38:26;24.80;99.90
26408;DHT22;14583;43.604;1.364;2023-06-22T11:40:51;24.60;99.90
26408;DHT22;14583;43.604;1.364;2023-06-22T11:43:17;24.50;99.90
26408;DHT22;14583;43.604;1.364;2023-06-22T11:45:43;24.50;99.90
26408;DHT22;14583;43.604;1.364;2023-06-22T11:48:08;24.70;99.90
26408;DHT22;14583;43.604;1.364;2023-06-22T11:50:34;24.80;99.90
26408;DHT22;14583;43.604;1.364;2023-06-22T11:53:02;24.90;99.90
26408;DHT22;14583;43.604;1.364;2023-06-22T11:55:28;25.10;99.90
26408;DHT22;14583;43.604;1.364;2023-06-22T11:57:56;25.20;99.90
26408;DHT22;14583;43.604;1.364;2023-06-22T12:00:25;25.20;99.90
26408;DHT22;14583;43.604;1.364;2023-06-22T12:02:51;25.00;99.90
26408;DHT22;14583;43.604;1.364;2023-06-22T12:05:20;25.00;99.90
26408;DHT22;14583;43.604;1.364;2023-06-22T12:07:46;25.30;99.90
26408;DHT22;14583;43.604;1.364;2023-06-22T12:10:12;25.50;99.90
26408;DHT22;14583;43.604;1.364;2023-06-22T12:12:38;25.60;99.90
26408;DHT22;14583;43.604;1.364;2023-06-22T12:15:04;25.50;99.90
26408;DHT22;14583;43.604;1.364;2023-06-22T12:17:31;25.30;99.90
26408;DHT22;14583;43.604;1.364;2023-06-22T12:19:56;24.90;99.90
26408;DHT22;14583;43.604;1.364;2023-06-22T12:22:22;24.80;99.90
26408;DHT22;14583;43.604;1.364;2023-06-22T12:24:48;24.80;99.90
26408;DHT22;14583;43.604;1.364;2023-06-22T12:27:16;24.70;99.90
26408;DHT22;14583;43.604;1.364;2023-06-22T12:29:45;24.70;99.90
26408;DHT22;14583;43.604;1.364;2023-06-22T12:32:11;24.60;99.90
26408;DHT22;14583;43.604;1.364;2023-06-22T12:34:38;24.60;99.90
26408;DHT22;14583;43.604;1.364;2023-06-22T12:37:04;24.50;99.90
26408;DHT22;14583;43.604;1.364;2023-06-22T12:39:31;24.60;99.90
26408;DHT22;14583;43.604;1.364;2023-06-22T12:41:57;24.50;99.90
26408;DHT22;14583;43.604;1.364;2023-06-22T12:44:23;24.50;99.90
26408;DHT22;14583;43.604;1.364;2023-06-22T12:46:48;24.40;99.90
26408;DHT22;14583;43.604;1.364;2023-06-22T12:49:14;24.30;99.90
26408;DHT22;14583;43.604;1.364;2023-06-22T12:51:41;24.40;99.90
26408;DHT22;14583;43.604;1.364;2023-06-22T12:54:10;24.40;99.90
26408;DHT22;14583;43.604;1.364;2023-06-22T12:56:37;24.30;99.90
26408;DHT22;14583;43.604;1.364;2023-06-22T12:59:04;24.30;99.90
26408;DHT22;14583;43.604;1.364;2023-06-22T13:01:30;24.40;99.90
26408;DHT22;14583;43.604;1.364;2023-06-22T13:03:56;24.60;99.90
26408;DHT22;14583;43.604;1.364;2023-06-22T13:06:22;24.60;99.90
26408;DHT22;14583;43.604;1.364;2023-06-22T13:08:47;24.90;99.90
26408;DHT22;14583;43.604;1.364;2023-06-22T13:11:13;25.20;99.90
26408;DHT22;14583;43.604;1.364;2023-06-22T13:13:40;25.40;99.90
26408;DHT22;14583;43.604;1.364;2023-06-22T13:16:06;25.60;99.90
26408;DHT22;14583;43.604;1.364;2023-06-22T13:18:32;25.60;99.90
26408;DHT22;14583;43.604;1.364;2023-06-22T13:20:58;25.60;99.90
26408;DHT22;14583;43.604;1.364;2023-06-22T13:23:25;25.60;99.90
26408;DHT22;14583;43.604;1.364;2023-06-22T13:25:51;25.60;99.90
26408;DHT22;14583;43.604;1.364;2023-06-22T13:28:17;25.70;99.90
26408;DHT22;14583;43.604;1.364;2023-06-22T13:30:42;25.80;99.90
26408;DHT22;14583;43.604;1.364;2023-06-22T13:33:10;26.10;99.90
26408;DHT22;14583;43.604;1.364;2023-06-22T13:35:36;26.20;99.90
26408;DHT22;14583;43.604;1.364;2023-06-22T13:38:03;26.30;99.90
26408;DHT22;14583;43.604;1.364;2023-06-22T13:40:29;26.00;99.90
26408;DHT22;14583;43.604;1.364;2023-06-22T13:42:55;25.70;99.90
26408;DHT22;14583;43.604;1.364;2023-06-22T13:45:21;25.70;99.90
26408;DHT22;14583;43.604;1.364;2023-06-22T13:47:47;25.90;99.90
26408;DHT22;14583;43.604;1.364;2023-06-22T13:50:12;26.00;99.90
26408;DHT22;14583;43.604;1.364;2023-06-22T13:52:38;26.10;99.90
26408;DHT22;14583;43.604;1.364;2023-06-22T13:55:05;26.10;99.90
26408;DHT22;14583;43.604;1.364;2023-06-22T13:57:32;26.20;99.90
26408;DHT22;14583;43.604;1.364;2023-06-22T13:59:58;26.20;99.90
26408;DHT22;14583;43.604;1.364;2023-06-22T14:02:23;26.10;99.90
26408;DHT22;14583;43.604;1.364;2023-06-22T14:04:49;26.20;99.90
26408;DHT22;14583;43.604;1.364;2023-06-22T14:07:15;26.20;99.90
26408;DHT22;14583;43.604;1.364;2023-06-22T14:09:40;26.00;99.90
26408;DHT22;14583;43.604;1.364;2023-06-22T14:12:06;25.80;99.90
26408;DHT22;14583;43.604;1.364;2023-06-22T14:14:33;25.90;99.90
26408;DHT22;14583;43.604;1.364;2023-06-22T14:16:59;26.00;99.90
26408;DHT22;14583;43.604;1.364;2023-06-22T14:19:24;26.10;99.90
26408;DHT22;14583;43.604;1.364;2023-06-22T14:21:50;26.10;99.90
26408;DHT22;14583;43.604;1.364;2023-06-22T14:24:16;26.10;99.90
26408;DHT22;14583;43.604;1.364;2023-06-22T14:26:41;26.10;99.90
26408;DHT22;14583;43.604;1.364;2023-06-22T14:29:07;26.00;99.90
26408;DHT22;14583;43.604;1.364;2023-06-22T14:31:32;25.80;99.90
26408;DHT22;14583;43.604;1.364;2023-06-22T14:33:58;25.90;99.90
26408;DHT22;14583;43.604;1.364;2023-06-22T14:36:24;26.00;99.90
26408;DHT22;14583;43.604;1.364;2023-06-22T14:38:49;26.00;99.90
26408;DHT22;14583;43.604;1.364;2023-06-22T14:41:15;25.80;99.90
26408;DHT22;14583;43.604;1.364;2023-06-22T14:43:46;25.50;99.90
26408;DHT22;14583;43.604;1.364;2023-06-22T14:46:17;25.40;99.90
26408;DHT22;14583;43.604;1.364;2023-06-22T14:48:43;25.30;99.90
26408;DHT22;14583;43.604;1.364;2023-06-22T14:51:09;25.30;99.90
26408;DHT22;14583;43.604;1.364;2023-06-22T14:53:36;25.30;99.90
26408;DHT22;14583;43.604;1.364;2023-06-22T14:56:01;25.30;99.90
26408;DHT22;14583;43.604;1.364;2023-06-22T14:58:28;25.20;99.90
26408;DHT22;14583;43.604;1.364;2023-06-22T15:00:55;25.30;99.90
26408;DHT22;14583;43.604;1.364;2023-06-22T15:03:21;25.50;99.90
26408;DHT22;14583;43.604;1.364;2023-06-22T15:05:50;25.90;99.90
26408;DHT22;14583;43.604;1.364;2023-06-22T15:08:16;26.40;99.90
26408;DHT22;14583;43.604;1.364;2023-06-22T15:10:42;26.30;99.90
26408;DHT22;14583;43.604;1.364;2023-06-22T15:13:08;26.30;99.90
26408;DHT22;14583;43.604;1.364;2023-06-22T15:15:33;26.20;99.90
26408;DHT22;14583;43.604;1.364;2023-06-22T15:18:00;26.30;99.90
26408;DHT22;14583;43.604;1.364;2023-06-22T15:20:26;26.20;99.90
26408;DHT22;14583;43.604;1.364;2023-06-22T15:22:51;25.90;99.90
26408;DHT22;14583;43.604;1.364;2023-06-22T15:25:17;25.80;99.90
26408;DHT22;14583;43.604;1.364;2023-06-22T15:27:43;25.60;99.90
26408;DHT22;14583;43.604;1.364;2023-06-22T15:30:09;25.40;99.90
26408;DHT22;14583;43.604;1.364;2023-06-22T15:32:34;25.00;99.90
26408;DHT22;14583;43.604;1.364;2023-06-22T15:35:00;24.90;99.90
26408;DHT22;14583;43.604;1.364;2023-06-22T15:37:26;24.80;99.90
26408;DHT22;14583;43.604;1.364;2023-06-22T15:39:52;24.80;99.90
26408;DHT22;14583;43.604;1.364;2023-06-22T15:42:17;24.80;99.90
26408;DHT22;14583;43.604;1.364;2023-06-22T15:44:43;24.80;99.90
26408;DHT22;14583;43.604;1.364;2023-06-22T15:47:08;25.00;99.90
26408;DHT22;14583;43.604;1.364;2023-06-22T15:49:34;25.10;99.90
26408;DHT22;14583;43.604;1.364;2023-06-22T15:52:00;25.00;99.90
26408;DHT22;14583;43.604;1.364;2023-06-22T15:54:25;25.20;99.90
26408;DHT22;14583;43.604;1.364;2023-06-22T15:56:52;25.10;99.90